Time;durP1;ratioP1;P1;durP2;ratioP2;P2;SDS_P1;SDS_P2;PMS_P1;PMS_P2;Temp;Humidity;BMP_temperature;BMP_pressure;BME280_temperature;BME280_humidity;BME280_pressure;Samples;Min_cycle;Max_cycle;Signal;HPM_P1;HPM_P2
2022/05/21 00:00:41;;;;;;;2.53;0.80;;;;;;;9.41;83.42;100876.25;6255928;23;20004;-71
2022/05/21 00:03:10;;;;;;;6.97;1.10;;;;;;;9.43;84.34;100876.84;6251594;23;20008;-72
2022/05/21 00:05:36;;;;;;;5.53;1.17;;;;;;;9.37;84.56;100866.91;6178139;23;19996;-70
2022/05/21 00:08:04;;;;;;;6.93;1.55;;;;;;;9.43;84.37;100879.56;6251826;23;20060;-71
2022/05/21 00:10:31;;;;;;;16.83;2.30;;;;;;;9.40;84.33;100877.31;6200720;23;20019;-71
2022/05/21 00:12:57;;;;;;;9.60;1.48;;;;;;;9.34;84.43;100872.88;6227637;23;20068;-70
2022/05/21 00:15:26;;;;;;;5.63;1.17;;;;;;;9.32;84.37;100875.03;6200722;23;20012;-70
2022/05/21 00:17:51;;;;;;;4.50;1.48;;;;;;;9.32;84.88;100880.47;6222685;23;20007;-69
2022/05/21 00:23:24;;;;;;;6.90;1.00;;;;;;;9.29;85.23;100880.94;6226572;23;20030;-71
2022/05/21 00:25:55;;;;;;;6.53;1.00;;;;;;;9.25;85.63;100889.63;6224748;23;20071;-71
2022/05/21 00:28:20;;;;;;;8.77;1.55;;;;;;;9.19;85.55;100874.25;6223779;23;20423;-71
2022/05/21 00:30:46;;;;;;;5.75;1.27;;;;;;;9.24;86.13;100881.69;6200257;23;20066;-69
2022/05/21 00:33:12;;;;;;;7.85;1.40;;;;;;;9.16;86.12;100866.56;6177220;23;20012;-70
2022/05/21 00:35:38;;;;;;;10.15;1.63;;;;;;;9.24;86.29;100878.97;6224127;23;20435;-71
2022/05/21 00:38:04;;;;;;;9.52;2.15;;;;;;;9.23;86.26;100869.97;6251205;23;20007;-70
2022/05/21 00:40:29;;;;;;;5.63;1.52;;;;;;;9.23;86.45;100878.16;6227310;23;20011;-70
2022/05/21 00:42:55;;;;;;;6.28;1.45;;;;;;;9.24;86.17;100873.50;6224720;23;20004;-70
2022/05/21 00:45:20;;;;;;;5.25;1.23;;;;;;;9.21;86.56;100869.38;6227682;23;20012;-72
2022/05/21 00:47:46;;;;;;;5.63;1.48;;;;;;;9.21;86.88;100869.38;6225234;23;20008;-71
2022/05/21 00:50:14;;;;;;;8.15;1.38;;;;;;;9.19;87.10;100876.97;6204990;23;20028;-72
2022/05/21 00:52:40;;;;;;;8.63;1.45;;;;;;;9.17;87.26;100876.41;6251707;23;19988;-71
2022/05/21 00:55:29;;;;;;;8.07;1.30;;;;;;;9.12;87.43;100881.75;6226127;23;20030;-71
2022/05/21 01:00:44;;;;;;;12.88;1.30;;;;;;;8.96;88.14;100891.56;6254547;23;20043;-70
2022/05/21 01:03:12;;;;;;;13.82;1.55;;;;;;;8.95;87.96;100897.25;6202524;23;20008;-70
2022/05/21 01:05:38;;;;;;;7.20;1.40;;;;;;;8.89;87.68;100886.25;6227366;23;20005;-71
2022/05/21 01:08:05;;;;;;;9.98;1.20;;;;;;;8.85;88.02;100889.72;6226464;23;19996;-71
2022/05/21 01:10:37;;;;;;;7.72;1.15;;;;;;;8.80;88.51;100882.25;6228334;23;20019;-70
2022/05/21 01:13:06;;;;;;;6.90;0.90;;;;;;;8.81;89.28;100892.09;6254438;23;20024;-69
2022/05/21 01:15:40;;;;;;;8.70;1.80;;;;;;;8.78;89.34;100887.13;6254296;23;20149;-70
2022/05/21 01:18:07;;;;;;;14.95;2.42;;;;;;;8.76;89.21;100894.75;6252185;23;20004;-71
2022/05/21 01:20:47;;;;;;;7.32;1.67;;;;;;;8.77;90.22;100890.91;6225711;23;20004;-69
2022/05/21 01:23:17;;;;;;;9.77;1.70;;;;;;;8.74;89.96;100875.03;6226843;23;20446;-72
2022/05/21 01:25:45;;;;;;;7.40;1.30;;;;;;;8.70;90.55;100876.59;6228250;23;20004;-72
2022/05/21 01:28:13;;;;;;;9.50;1.27;;;;;;;8.74;90.42;100877.78;6226989;23;20000;-71
2022/05/21 01:30:38;;;;;;;9.85;1.90;;;;;;;8.72;90.70;100877.19;6251236;23;20475;-69
2022/05/21 01:33:09;;;;;;;11.00;1.80;;;;;;;8.67;90.58;100874.34;6250902;23;20015;-70
2022/05/21 01:35:35;;;;;;;6.47;1.40;;;;;;;8.62;90.63;100868.81;6252194;22;20107;-70
2022/05/21 01:38:01;;;;;;;13.98;1.70;;;;;;;8.65;90.84;100879.25;6175054;23;20012;-70
2022/05/21 01:40:27;;;;;;;10.82;1.92;;;;;;;8.58;91.05;100875.81;6224267;23;19999;-71
2022/05/21 01:45:37;;;;;;;6.90;1.20;;;;;;;8.51;91.05;100881.41;6253923;23;20062;-71
2022/05/21 01:48:04;;;;;;;3.33;1.10;;;;;;;8.44;92.01;100881.53;6201250;23;20241;-71
2022/05/21 01:50:30;;;;;;;11.05;1.95;;;;;;;8.46;91.81;100873.94;6251916;23;20003;-71
2022/05/21 01:52:56;;;;;;;9.07;1.50;;;;;;;8.47;92.66;100886.50;6223607;23;20087;-71
2022/05/21 01:55:22;;;;;;;11.13;1.50;;;;;;;8.42;92.23;100864.56;6223055;23;20342;-76
2022/05/21 01:57:48;;;;;;;7.85;1.42;;;;;;;8.51;93.15;100878.66;6230143;23;20000;-74
2022/05/21 02:00:15;;;;;;;14.55;1.50;;;;;;;8.54;92.31;100875.47;6205622;23;20004;-73
2022/05/21 02:02:41;;;;;;;12.55;1.42;;;;;;;8.51;92.56;100865.88;6255710;23;19996;-73
2022/05/21 02:05:07;;;;;;;3.90;1.10;;;;;;;8.53;92.80;100858.28;6256223;23;19984;-74
2022/05/21 02:07:34;;;;;;;13.55;1.83;;;;;;;8.55;92.94;100861.59;6232299;23;20015;-74
2022/05/21 02:10:00;;;;;;;13.43;1.73;;;;;;;8.53;92.95;100855.56;6204473;23;20089;-74
2022/05/21 02:12:27;;;;;;;8.18;1.65;;;;;;;8.55;92.76;100856.13;6258353;23;20052;-74
2022/05/21 02:14:56;;;;;;;11.07;2.25;;;;;;;8.54;93.00;100846.31;6257071;23;20349;-74
2022/05/21 02:17:22;;;;;;;8.52;1.55;;;;;;;8.58;93.41;100854.00;6254747;23;20012;-73
2022/05/21 02:19:47;;;;;;;17.98;2.35;;;;;;;8.55;94.33;100849.88;6205981;23;20085;-73
2022/05/21 02:22:13;;;;;;;7.22;1.63;;;;;;;8.51;93.63;100846.81;6206975;23;20008;-73
2022/05/21 02:24:39;;;;;;;10.82;1.63;;;;;;;8.54;93.67;100862.69;6255978;23;20064;-74
2022/05/21 02:27:08;;;;;;;11.43;2.00;;;;;;;8.52;94.01;100867.53;6230970;23;20004;-73
2022/05/21 02:29:33;;;;;;;12.48;1.80;;;;;;;8.48;93.78;100870.97;6258796;23;20018;-74
2022/05/21 02:31:59;;;;;;;17.75;1.98;;;;;;;8.42;93.69;100880.91;6232530;23;20079;-74
2022/05/21 02:34:24;;;;;;;8.57;1.65;;;;;;;8.38;93.65;100874.28;6258778;22;20123;-75
2022/05/21 02:39:34;;;;;;;6.05;1.40;;;;;;;8.36;94.29;100879.16;6258929;23;20019;-73
2022/05/21 02:42:01;;;;;;;10.27;1.80;;;;;;;8.33;94.01;100863.28;6231659;23;20012;-74
2022/05/21 02:44:28;;;;;;;3.67;1.13;;;;;;;8.24;95.02;100875.63;6259423;23;20023;-74
2022/05/21 02:46:54;;;;;;;5.18;1.55;;;;;;;8.15;94.46;100883.34;6257665;23;20169;-74
2022/05/21 02:49:21;;;;;;;7.15;1.85;;;;;;;8.05;94.72;100878.50;6227200;23;20008;-72
2022/05/21 02:51:47;;;;;;;10.00;1.33;;;;;;;8.01;94.96;100882.75;6229014;23;20042;-74
2022/05/21 02:54:14;;;;;;;5.07;1.13;;;;;;;7.95;94.67;100879.09;6203498;23;20415;-75
2022/05/21 02:56:48;;;;;;;10.05;2.10;;;;;;;7.93;95.25;100883.09;6256055;23;20008;-73
2022/05/21 02:59:14;;;;;;;6.97;1.50;;;;;;;7.93;95.43;100888.53;6231154;23;20000;-73
2022/05/21 03:01:40;;;;;;;8.20;1.52;;;;;;;7.93;95.14;100891.28;6256688;23;20004;-74
2022/05/21 03:04:07;;;;;;;15.45;1.60;;;;;;;7.94;95.45;100892.94;6205826;23;20032;-74
2022/05/21 03:06:34;;;;;;;8.75;1.38;;;;;;;7.90;95.75;100886.28;6230578;23;20041;-74
2022/05/21 03:11:46;;;;;;;4.50;1.25;;;;;;;7.92;96.36;100892.34;6248771;23;20018;-73
2022/05/21 03:14:25;;;;;;;5.10;1.30;;;;;;;7.92;95.68;100895.91;6194968;23;20008;-73
2022/05/21 03:17:44;;;;;;;4.95;1.38;;;;;;;7.94;95.54;100898.38;6247547;23;20000;-73
2022/05/21 03:20:36;;;;;;;7.38;1.38;;;;;;;7.93;95.18;100885.81;6219713;22;20015;-74
2022/05/21 03:23:10;;;;;;;11.07;1.35;;;;;;;7.91;95.38;100885.25;6229676;22;20004;-74
2022/05/21 03:25:37;;;;;;;6.45;1.08;;;;;;;7.85;95.51;100885.09;6245359;23;20019;-74
2022/05/21 03:28:27;;;;;;;6.30;0.80;;;;;;;7.84;95.06;100888.91;6210781;22;20143;-72
2022/05/21 03:31:14;;;;;;;6.50;1.45;;;;;;;7.83;95.27;100900.88;6198949;23;20012;-72
2022/05/21 03:33:40;;;;;;;8.02;1.48;;;;;;;7.85;96.23;100901.44;6140039;23;20013;-73
2022/05/21 03:36:08;;;;;;;8.52;1.35;;;;;;;7.92;96.47;100911.41;6162225;23;20020;-74
2022/05/21 03:39:05;;;;;;;1.88;0.73;;;;;;;7.91;95.83;100907.03;6162257;23;20335;-73
2022/05/21 03:44:46;;;;;;;2.20;0.75;;;;;;;7.97;95.25;100915.09;6123039;23;20024;-73
2022/05/21 03:47:12;;;;;;;4.20;0.98;;;;;;;7.98;95.22;100905.03;6150443;23;20063;-73
2022/05/21 03:49:40;;;;;;;7.75;0.90;;;;;;;7.96;94.83;100918.06;6195425;23;20435;-73
2022/05/21 03:52:06;;;;;;;8.63;1.50;;;;;;;7.94;95.16;100903.81;6141859;23;20005;-73
2022/05/21 03:54:32;;;;;;;6.63;1.35;;;;;;;7.99;95.43;100909.41;6196626;23;20001;-73
2022/05/21 03:56:58;;;;;;;11.40;1.63;;;;;;;8.04;95.73;100912.22;6195497;23;20073;-73
2022/05/21 03:59:24;;;;;;;11.05;1.80;;;;;;;8.03;95.50;100902.41;6195232;23;19997;-72
2022/05/21 04:01:50;;;;;;;7.55;1.55;;;;;;;8.08;95.66;100909.88;6169003;23;20009;-73
2022/05/21 04:04:15;;;;;;;9.23;1.83;;;;;;;8.06;95.75;100907.41;6145140;23;20229;-74
2022/05/21 04:06:41;;;;;;;11.73;1.40;;;;;;;8.06;96.02;100910.13;6170057;23;20013;-75
2022/05/21 04:09:10;;;;;;;18.80;2.20;;;;;;;8.03;95.12;100905.13;6146480;23;20013;-74
2022/05/21 04:11:35;;;;;;;7.05;1.38;;;;;;;8.07;95.80;100905.50;6170558;23;20076;-73
2022/05/21 04:14:01;;;;;;;8.90;1.92;;;;;;;8.04;95.68;100910.34;6171627;23;20009;-75
2022/05/21 04:16:26;;;;;;;8.95;1.42;;;;;;;8.01;95.68;100901.81;6143175;23;20082;-74
2022/05/21 04:18:53;;;;;;;5.95;1.45;;;;;;;7.99;95.39;100901.25;6144474;23;20005;-76
2022/05/21 04:21:19;;;;;;;4.03;1.23;;;;;;;7.97;96.24;100900.63;6145677;23;20012;-76
2022/05/21 04:23:44;;;;;;;4.68;1.20;;;;;;;7.93;95.88;100902.16;6171648;23;20036;-75
2022/05/21 04:26:10;;;;;;;11.52;1.55;;;;;;;7.91;95.50;100901.59;6174150;23;20016;-76
2022/05/21 04:28:35;;;;;;;8.63;1.50;;;;;;;7.87;95.50;100906.69;6153814;23;20028;-77
2022/05/21 04:31:01;;;;;;;11.15;1.67;;;;;;;7.81;95.91;100905.72;6222810;23;20031;-78
2022/05/21 04:33:26;;;;;;;8.77;1.35;;;;;;;7.76;95.69;100902.06;6230061;23;20031;-76
2022/05/21 04:38:38;;;;;;;9.10;1.45;;;;;;;7.72;95.85;100896.22;6228788;23;20023;-77
2022/05/21 04:41:03;;;;;;;8.60;1.30;;;;;;;7.74;96.33;100898.72;6183978;23;19996;-77
2022/05/21 04:43:29;;;;;;;8.30;1.50;;;;;;;7.83;96.49;100909.03;6205159;23;20159;-77
2022/05/21 04:45:57;;;;;;;5.53;1.35;;;;;;;7.88;96.20;100910.22;6205827;23;20005;-76
2022/05/21 04:48:23;;;;;;;9.52;1.52;;;;;;;7.92;95.98;100917.69;6203323;23;20083;-77
2022/05/21 04:50:49;;;;;;;3.15;1.17;;;;;;;8.02;96.09;100917.09;6178791;23;20020;-76
2022/05/21 04:53:14;;;;;;;7.18;1.38;;;;;;;8.12;95.59;100932.81;6201029;23;20011;-77
2022/05/21 04:55:40;;;;;;;8.13;1.45;;;;;;;8.19;95.57;100926.22;6177316;23;20017;-76
2022/05/21 04:58:06;;;;;;;7.53;1.50;;;;;;;8.26;94.66;100931.53;6176712;23;20089;-75
2022/05/21 05:00:32;;;;;;;11.48;2.10;;;;;;;8.40;94.91;100934.84;6175232;23;20404;-75
2022/05/21 05:35:34;;;;;;;9.90;1.45;;;;;;;9.84;87.69;100969.53;6259718;23;20016;-75
2022/05/21 05:38:11;;;;;;;5.55;1.42;;;;;;;9.80;87.39;100958.28;6233456;23;20012;-76
2022/05/21 05:40:41;;;;;;;4.97;1.42;;;;;;;9.86;87.19;100962.75;6233519;23;20457;-75
2022/05/21 05:43:07;;;;;;;7.18;1.65;;;;;;;9.90;86.51;100963.91;6232600;23;20003;-75
2022/05/21 05:45:32;;;;;;;4.70;1.20;;;;;;;10.06;86.28;100988.75;6229503;23;20068;-75
2022/05/21 05:47:58;;;;;;;4.22;1.35;;;;;;;10.06;85.86;100986.00;6257825;23;20015;-74
2022/05/21 05:50:24;;;;;;;9.38;1.60;;;;;;;10.05;86.11;100987.09;6203897;23;20019;-75
2022/05/21 05:52:49;;;;;;;5.50;1.10;;;;;;;10.07;86.07;100979.47;6258390;23;20008;-75
2022/05/21 05:55:15;;;;;;;3.00;1.30;;;;;;;10.09;86.05;100978.16;6226572;23;20024;-75
2022/05/21 05:57:40;;;;;;;5.05;0.98;;;;;;;10.09;85.75;100980.03;6227377;23;20059;-75
2022/05/21 06:00:08;;;;;;;5.03;1.42;;;;;;;10.09;85.71;100980.03;6202407;23;20028;-76
2022/05/21 06:05:20;;;;;;;8.68;2.05;;;;;;;10.35;85.64;100991.41;6258739;23;20062;-75
2022/05/21 06:07:49;;;;;;;6.03;1.20;;;;;;;10.53;84.84;100993.88;6231983;23;20026;-76
2022/05/21 06:10:26;;;;;;;5.72;1.00;;;;;;;10.81;84.91;100995.59;6262220;22;20023;-78
2022/05/21 06:12:53;;;;;;;9.48;1.40;;;;;;;11.02;83.77;100978.63;6235484;23;20027;-77
2022/05/21 06:15:18;;;;;;;8.88;1.67;;;;;;;11.29;82.18;100984.97;6235166;23;20004;-77
2022/05/21 06:17:45;;;;;;;8.57;1.48;;;;;;;11.32;81.62;100969.94;6234619;23;20065;-76
2022/05/21 06:20:15;;;;;;;5.03;1.20;;;;;;;11.43;81.16;100979.06;6235367;23;20016;-77
2022/05/21 06:22:41;;;;;;;4.55;1.38;;;;;;;11.54;81.75;100986.31;6234121;23;20004;-76
2022/05/21 06:25:08;;;;;;;5.13;1.02;;;;;;;11.76;81.37;100982.69;6234737;23;20035;-79
2022/05/21 06:27:34;;;;;;;5.35;1.20;;;;;;;11.89;79.93;100968.53;6235813;23;20011;-77
2022/05/21 06:29:59;;;;;;;6.90;1.50;;;;;;;12.04;79.78;100979.66;6209563;23;20114;-77
2022/05/21 06:32:25;;;;;;;12.52;2.13;;;;;;;12.06;79.23;100973.91;6236417;23;20011;-75
2022/05/21 06:34:51;;;;;;;13.35;1.65;;;;;;;12.10;79.61;100987.91;6259060;23;20044;-75
2022/05/21 06:37:16;;;;;;;6.65;1.25;;;;;;;12.11;80.12;100989.59;6233844;23;20071;-74
2022/05/21 06:39:42;;;;;;;8.32;1.50;;;;;;;12.22;79.58;100994.88;6259659;23;20007;-74
2022/05/21 06:42:09;;;;;;;6.72;1.50;;;;;;;12.39;79.28;101007.59;6265838;23;20004;-73
2022/05/21 06:44:38;;;;;;;6.80;1.70;;;;;;;12.47;77.91;101009.84;6239580;23;20015;-76
2022/05/21 06:47:04;;;;;;;9.88;1.85;;;;;;;12.55;77.51;101012.09;6234393;23;20019;-75
2022/05/21 06:49:30;;;;;;;4.63;1.27;;;;;;;12.64;77.98;101017.91;6207270;23;20007;-75
2022/05/21 06:51:58;;;;;;;14.38;1.90;;;;;;;12.70;76.82;101016.88;6232779;23;20008;-74
2022/05/21 06:54:24;;;;;;;9.43;1.45;;;;;;;12.74;76.62;101015.22;6209662;23;20442;-75
2022/05/21 06:56:50;;;;;;;9.77;1.27;;;;;;;12.74;76.27;101020.69;6260264;23;20008;-75
2022/05/21 06:59:17;;;;;;;11.70;1.38;;;;;;;12.67;76.75;101011.88;6259299;23;20051;-74
2022/05/21 07:01:43;;;;;;;7.75;1.90;;;;;;;12.80;76.86;101020.75;6231138;23;20004;-74
2022/05/21 07:04:09;;;;;;;5.95;1.42;;;;;;;13.03;76.39;101024.97;6259056;23;20008;-75
2022/05/21 07:09:21;;;;;;;7.15;1.50;;;;;;;13.54;75.35;101025.16;6258239;23;20039;-73
2022/05/21 07:11:48;;;;;;;7.07;1.98;;;;;;;13.77;74.35;101023.03;6258872;23;20079;-74
2022/05/21 07:14:14;;;;;;;16.42;1.80;;;;;;;14.06;73.77;101028.81;6255842;23;20004;-74
2022/05/21 07:16:40;;;;;;;8.10;1.85;;;;;;;14.42;72.19;101037.03;6226909;23;20004;-74
2022/05/21 07:19:07;;;;;;;10.52;2.20;;;;;;;14.63;69.44;101020.50;6232636;23;20007;-75
2022/05/21 07:21:33;;;;;;;12.32;1.30;;;;;;;14.87;69.60;101014.41;6257207;23;20095;-75
2022/05/21 07:23:59;;;;;;;13.23;2.20;;;;;;;15.09;66.98;101017.63;6206267;23;20093;-73
2022/05/21 07:26:24;;;;;;;13.38;1.85;;;;;;;15.07;65.62;101024.50;6229035;23;20011;-75
2022/05/21 07:28:51;;;;;;;14.38;1.67;;;;;;;15.03;66.15;101018.75;6231364;23;20020;-76
2022/05/21 07:31:17;;;;;;;7.45;1.77;;;;;;;15.19;66.26;101023.09;6234104;23;20079;-76
2022/05/21 07:33:46;;;;;;;13.85;1.75;;;;;;;15.57;65.55;101032.84;6181699;23;20008;-74
2022/05/21 07:36:14;;;;;;;12.60;1.48;;;;;;;15.64;64.09;101019.56;6234236;23;20014;-75
2022/05/21 07:38:43;;;;;;;7.13;1.65;;;;;;;15.54;63.65;101032.28;6207951;23;20094;-74
2022/05/21 07:41:08;;;;;;;6.05;1.58;;;;;;;15.56;64.03;101036.69;6208984;23;20015;-75
2022/05/21 07:43:34;;;;;;;10.95;1.90;;;;;;;15.52;63.70;101031.75;6183357;23;20008;-74
2022/05/21 07:46:01;;;;;;;23.67;1.92;;;;;;;15.71;63.42;101039.31;6210148;23;20072;-76
2022/05/21 07:48:47;;;;;;;17.23;2.80;;;;;;;15.79;62.60;101040.72;6234829;23;20012;-76
2022/05/21 07:51:15;;;;;;;7.70;1.70;;;;;;;15.77;62.84;101043.72;6211864;23;19992;-77
2022/05/21 07:53:42;;;;;;;8.65;2.05;;;;;;;15.85;62.17;101034.84;6191179;23;20008;-77
2022/05/21 07:56:11;;;;;;;4.93;1.17;;;;;;;15.82;61.85;101029.09;6192239;23;20016;-76
2022/05/21 07:58:49;;;;;;;10.35;1.90;;;;;;;15.97;60.96;101037.25;6217326;23;20012;-79
2022/05/21 08:01:35;;;;;;;5.85;1.50;;;;;;;15.94;61.73;101042.53;6241602;23;20008;-76
2022/05/21 08:04:17;;;;;;;11.30;2.35;;;;;;;15.92;61.97;101045.56;6218795;23;20016;-75
2022/05/21 08:06:43;;;;;;;14.32;1.70;;;;;;;15.96;61.53;101048.56;6236946;23;20064;-75
2022/05/21 10:25:47;;;;;;;4.97;1.50;;;;;;;34.46;21.23;101028.84;6165972;23;20021;31
2022/05/21 10:28:38;;;;;;;4.32;1.00;;;;;;;33.53;19.45;101018.78;6106471;23;20026;-76
2022/05/21 10:31:52;;;;;;;5.28;0.85;;;;;;;34.87;18.02;101028.16;6108505;23;20315;-77
2022/05/21 10:34:51;;;;;;;;;;;;;;;;;;;;;
2022/05/21 11:12:17;;;;;;;;;;;;;;;;;;;;;
2022/05/21 11:18:50;;;;;;;;;;;;;;;;;;;;;
2022/05/21 11:29:29;;;;;;;;;;;;;;;;;;;;;
2022/05/21 11:59:12;;;;;;;3.67;0.80;;;;;;;42.13;14.52;100958.44;6228186;22;20028;-77
2022/05/21 12:05:28;;;;;;;3.88;1.02;;;;;;;43.24;11.98;100960.63;6113863;23;20393;-73
2022/05/21 12:08:54;;;;;;;;;;;;;;;;;;;;;
2022/05/21 12:40:18;;;;;;;4.18;1.00;;;;;;;44.70;10.11;100919.38;6169141;23;20001;-78
2022/05/21 12:42:55;;;;;;;3.92;1.15;;;;;;;44.35;10.60;100916.22;6138773;23;20133;-76
2022/05/21 12:45:32;;;;;;;2.97;1.17;;;;;;;40.97;12.22;100913.31;6112620;23;20051;-75
2022/05/21 12:48:22;;;;;;;2.60;0.82;;;;;;;40.08;13.65;100909.44;6196149;23;20014;-76
2022/05/21 12:50:58;;;;;;;3.35;0.98;;;;;;;44.94;10.66;100916.41;6201857;23;20004;-76
2022/05/21 12:54:19;;;;;;;2.47;1.00;;;;;;;46.86;9.46;100920.59;6176954;23;20063;-75
2022/05/21 13:23:42;;;;;;;;;;;;;;;;;;;;;
2022/05/21 13:34:12;;;;;;;;;;;;;;;;;;;;;
2022/05/21 13:36:54;;;;;;;;;;;;;;;;;;;;;
2022/05/21 13:43:20;;;;;;;3.83;1.17;;;;;;;37.03;13.82;100850.59;6225444;22;20026;-76
2022/05/21 13:49:36;;;;;;;3.58;1.10;;;;;;;35.10;16.35;100873.25;6045131;23;19999;-78
2022/05/21 13:52:39;;;;;;;;;;;;;;;;;;;;;
2022/05/21 13:55:08;;;;;;;2.60;0.85;;;;;;;40.29;12.61;100872.72;6228417;22;20024;-76
2022/05/21 13:57:35;;;;;;;8.30;1.13;;;;;;;43.46;10.39;100871.25;6176519;23;20005;-77
2022/05/21 14:11:30;;;;;;;;;;;;;;;;;;;;;
2022/05/21 14:27:55;;;;;;;6.97;1.73;;;;;;;39.87;12.05;100824.28;6128714;23;20017;-76
2022/05/21 14:30:34;;;;;;;3.40;1.10;;;;;;;41.07;11.17;100828.16;6139108;23;20009;-78
2022/05/21 14:33:15;;;;;;;3.40;1.08;;;;;;;41.35;11.17;100836.94;6165562;23;20005;-78
2022/05/21 14:35:43;;;;;;;5.90;0.88;;;;;;;40.28;11.62;100826.13;6195818;23;20456;-79
2022/05/21 14:38:18;;;;;;;6.25;1.27;;;;;;;38.20;13.19;100821.84;6147929;23;20065;-79
2022/05/21 14:40:51;;;;;;;6.57;1.38;;;;;;;37.86;14.11;100831.66;6147562;23;20001;-78
2022/05/21 14:43:36;;;;;;;4.07;0.88;;;;;;;38.62;14.00;100832.53;6172189;23;20021;-78
2022/05/21 14:49:37;;;;;;;;;;;;;;;;;;;;;
2022/05/21 14:55:42;;;;;;;;;;;;;;;;;;;;;
2022/05/21 14:58:46;;;;;;;8.05;1.05;;;;;;;33.20;18.13;100806.34;6132987;23;20043;-77
2022/05/21 15:01:21;;;;;;;4.57;1.30;;;;;;;32.36;19.80;100824.03;6148249;23;20072;-78
2022/05/21 15:03:47;;;;;;;4.25;1.00;;;;;;;33.19;17.93;100812.41;6170432;23;20009;-79
2022/05/21 15:10:17;;;;;;;4.88;0.90;;;;;;;29.57;21.45;100815.47;6220168;23;20027;-77
2022/05/21 15:13:35;;;;;;;;;;;;;;;;;;;;;
2022/05/21 15:23:09;;;;;;;2.90;1.00;;;;;;;33.21;18.60;100816.47;6048449;23;20025;-78
2022/05/21 15:33:21;;;;;;;;;;;;;;;;;;;;;
2022/05/21 15:35:51;;;;;;;3.28;1.27;;;;;;;34.14;18.61;100791.53;6030320;23;20034;-79
2022/05/21 15:38:18;;;;;;;7.75;0.95;;;;;;;34.09;18.37;100774.94;6137399;23;20033;-79
2022/05/21 15:40:47;;;;;;;3.90;1.17;;;;;;;34.04;18.30;100781.06;6113175;23;20075;-78
2022/05/21 15:43:21;;;;;;;6.00;1.65;;;;;;;34.73;17.98;100801.06;6141558;23;20002;-78
2022/05/21 15:46:20;;;;;;;;;;;;;;;;;;;;;
2022/05/21 15:52:30;;;;;;;4.70;1.27;;;;;;;37.16;15.85;100779.47;6054042;23;20011;-79
2022/05/21 15:54:57;;;;;;;4.65;1.20;;;;;;;36.03;15.96;100770.75;6052445;23;20014;-78
2022/05/21 15:58:21;;;;;;;3.65;1.08;;;;;;;34.50;17.53;100785.47;6050541;23;20086;-79
2022/05/21 16:01:37;;;;;;;;;;;;;;;;;;;;;
2022/05/21 16:08:31;;;;;;;;;;;;;;;;;;;;;
2022/05/21 16:10:57;;;;;;;3.05;1.00;;;;;;;30.22;21.54;100758.81;6080362;23;20036;-78
2022/05/21 16:13:22;;;;;;;3.53;1.10;;;;;;;29.13;22.75;100767.47;6150604;23;20007;-76
2022/05/21 16:15:48;;;;;;;4.25;1.27;;;;;;;27.37;24.97;100727.16;6229192;23;20000;-77
2022/05/21 16:18:53;;;;;;;3.40;0.90;;;;;;;26.07;26.74;100734.84;6204728;23;20056;-77
2022/05/21 16:21:21;;;;;;;4.05;1.00;;;;;;;25.53;27.65;100739.91;6152241;23;20011;-79
2022/05/21 16:24:05;;;;;;;4.97;0.85;;;;;;;25.63;27.56;100748.94;6204441;23;20031;-78
2022/05/21 16:27:23;;;;;;;4.10;1.20;;;;;;;25.96;27.60;100763.41;6203627;23;19989;-76
2022/05/21 16:29:54;;;;;;;4.10;0.80;;;;;;;26.38;27.44;100736.75;6202096;23;20013;-78
2022/05/21 16:43:02;;;;;;;4.15;1.17;;;;;;;25.61;28.81;100719.34;6014211;23;20015;-78
2022/05/21 16:45:49;;;;;;;6.82;1.17;;;;;;;25.39;29.99;100694.75;6201307;23;20025;-76
2022/05/21 16:48:26;;;;;;;;;;;;;;;;;;;;;
2022/05/21 16:51:42;;;;;;;;;;;;;;;;;;;;;
2022/05/21 16:54:34;;;;;;;3.03;1.00;;;;;;;25.97;28.66;100730.59;6229175;23;20379;-79
2022/05/21 17:07:01;;;;;;;7.43;1.10;;;;;;;26.34;29.35;100684.59;6139511;23;20034;-77
2022/05/21 17:09:39;;;;;;;2.28;0.75;;;;;;;26.18;29.90;100707.06;6201791;23;20016;-81
2022/05/21 17:12:14;;;;;;;3.78;1.05;;;;;;;27.16;28.51;100688.22;6204354;23;20001;-78
2022/05/21 17:25:32;;;;;;;6.40;1.25;;;;;;;28.84;25.81;100703.25;5939781;24;20056;-81
2022/05/21 17:35:57;;;;;;;;;;;;;;;;;;;;;
2022/05/21 17:42:50;;;;;;;4.88;1.23;;;;;;;26.63;30.44;100709.25;5698732;24;20494;-78
2022/05/21 17:45:21;;;;;;;4.47;1.10;;;;;;;26.99;30.11;100700.75;5832512;23;20019;-77
2022/05/21 17:47:50;;;;;;;10.82;5.97;;;;;;;26.34;29.99;100709.81;6021762;23;20008;-77
2022/05/21 17:50:21;;;;;;;4.63;1.17;;;;;;;25.43;31.73;100695.66;6019466;23;20039;-76
2022/05/21 17:52:47;;;;;;;2.63;0.90;;;;;;;24.73;31.96;100691.38;6049498;23;20019;-76
2022/05/21 17:55:19;;;;;;;3.83;1.17;;;;;;;24.60;32.95;100700.97;6093682;23;20006;-75
2022/05/21 17:57:47;;;;;;;3.13;1.02;;;;;;;23.90;33.96;100676.88;6179082;23;20042;-76
2022/05/21 18:00:34;;;;;;;4.20;0.90;;;;;;;23.35;34.39;100680.69;6202113;23;20003;-77
2022/05/21 18:03:01;;;;;;;1.42;0.73;;;;;;;23.06;34.96;100695.59;6201149;23;20005;-77
2022/05/21 18:05:33;;;;;;;3.83;1.08;;;;;;;22.58;35.92;100708.19;6175732;23;20012;-77
2022/05/21 18:08:02;;;;;;;5.50;1.27;;;;;;;21.91;37.71;100696.84;6200540;23;20017;-77
2022/05/21 18:10:40;;;;;;;5.68;1.00;;;;;;;21.40;38.70;100702.28;6175017;23;20012;-75
2022/05/21 18:13:21;;;;;;;4.15;1.08;;;;;;;20.85;40.11;100695.53;6228779;23;19999;-76
2022/05/21 18:21:35;;;;;;;4.28;0.90;;;;;;;19.49;44.19;100685.19;6225270;23;20046;-75
2022/05/21 18:24:02;;;;;;;4.35;1.35;;;;;;;19.34;44.36;100698.31;6149253;23;20011;-74
2022/05/21 18:26:29;;;;;;;3.58;1.20;;;;;;;19.24;45.41;100684.75;6174641;23;20013;-75
2022/05/21 18:28:55;;;;;;;3.03;1.45;;;;;;;19.18;46.74;100675.72;6223861;23;20011;-76
2022/05/21 18:31:21;;;;;;;11.48;1.55;;;;;;;19.30;46.16;100691.81;6174830;23;20034;-76
2022/05/21 18:33:53;;;;;;;8.63;1.60;;;;;;;19.28;47.61;100693.25;6198648;23;20054;-76
2022/05/21 18:36:26;;;;;;;8.30;1.58;;;;;;;19.16;48.21;100696.63;6203058;23;20015;-77
2022/05/21 18:38:55;;;;;;;6.32;1.17;;;;;;;18.85;49.85;100694.56;6203101;23;20012;-79
2022/05/21 18:41:30;;;;;;;6.25;1.27;;;;;;;18.48;51.26;100688.28;6202072;23;20011;-77
2022/05/21 18:44:03;;;;;;;2.90;1.25;;;;;;;18.38;52.07;100680.22;6198486;23;20015;-77
2022/05/21 18:46:31;;;;;;;10.70;1.20;;;;;;;18.25;53.03;100691.03;6224585;23;20009;-77
2022/05/21 18:49:00;;;;;;;7.35;1.40;;;;;;;18.13;53.60;100674.13;6228474;23;20001;-78
2022/05/21 18:51:28;;;;;;;4.57;1.40;;;;;;;18.13;53.81;100676.91;6201110;23;20005;-76
2022/05/21 18:53:58;;;;;;;6.68;2.10;;;;;;;18.08;54.52;100683.38;6197844;23;20008;-77
2022/05/21 18:56:28;;;;;;;9.02;1.40;;;;;;;17.92;55.31;100680.09;6195939;23;20000;-80
2022/05/21 18:58:54;;;;;;;4.82;1.20;;;;;;;17.90;55.17;100676.00;6197900;23;20008;-77
2022/05/21 19:01:27;;;;;;;13.57;1.73;;;;;;;17.74;55.86;100664.41;6146703;23;20016;-75
2022/05/21 19:03:54;;;;;;;10.30;1.65;;;;;;;17.65;56.51;100677.34;6191581;23;20090;-76
2022/05/21 19:06:20;;;;;;;6.10;1.33;;;;;;;17.46;56.73;100667.19;6193442;23;20005;-76
2022/05/21 19:15:11;;;;;;;;;;;;;;;;;;;;;
2022/05/21 19:23:37;;;;;;;;;;;;;;;;;;;;;
2022/05/21 19:31:23;;;;;;;8.73;1.25;;;;;;;15.73;62.34;100681.47;6251605;22;20242;-73
2022/05/21 21:39:12;;;;;;;7.20;1.88;;;;;;;12.24;70.37;100731.38;6167885;23;20500;-74
2022/05/21 21:41:38;;;;;;;10.43;1.70;;;;;;;12.22;70.54;100728.91;6168675;23;20020;-75
2022/05/21 21:44:07;;;;;;;2.75;0.98;;;;;;;12.11;70.06;100724.50;6157994;23;20016;-74
2022/05/21 21:46:32;;;;;;;2.03;0.60;;;;;;;11.99;70.03;100724.72;6206662;23;20001;-74
2022/05/21 22:21:10;;;;;;;0.30;0.28;;;;;;;11.70;68.22;100700.44;6047874;23;20049;-74
2022/05/21 22:23:36;;;;;;;0.65;0.40;;;;;;;11.67;68.56;100706.47;6059021;23;20070;-77
2022/05/21 22:26:02;;;;;;;0.50;0.30;;;;;;;11.77;68.84;100721.28;6168718;23;20012;-75
2022/05/21 22:28:28;;;;;;;0.38;0.32;;;;;;;11.67;68.48;100717.41;6201975;23;20117;-75
2022/05/21 22:30:56;;;;;;;3.10;1.10;;;;;;;11.67;69.23;100725.63;6204070;23;20040;-74
2022/05/21 22:33:22;;;;;;;7.25;1.40;;;;;;;11.69;68.82;100725.38;6200566;23;20047;-73
2022/05/21 22:35:50;;;;;;;4.65;1.48;;;;;;;11.61;69.27;100707.53;6203115;23;20004;-75
2022/05/21 22:38:33;;;;;;;6.20;1.70;;;;;;;11.66;69.22;100715.75;6203727;23;20010;-78
2022/05/21 22:41:17;;;;;;;3.65;1.30;;;;;;;11.56;69.91;100706.69;6231803;23;20027;-76
2022/05/21 22:43:46;;;;;;;1.65;0.90;;;;;;;11.40;70.00;100690.16;6157380;23;20036;-77